Terminal Aerodrome Forecast
Issued by NWS

Home | Current Version | Previous Version | Text Only | Print | Product List | Glossary On
Versions: 1 2 3 4 5 6 7 8 9 10 11 12 13 14 15 16 17 18 19 20 21 22
085
FTUS43 KGRR 241150
TAFJXN
TAF
KJXN 241150Z 2412/2512 31008KT 6SM -RA OVC005
     FM241500 30008KT 6SM BR OVC006
     FM241800 29008KT P6SM OVC012
     FM250400 VRB03KT 6SM -RASN OVC010=

USA.gov is the U.S. government's official web portal to all federal, state and local government web resources and services.